createdAt,value
2023-04-15T00:00:29.477Z,54.75
2023-04-15T00:03:55.411Z,53.13
2023-04-15T00:07:21.086Z,53.75
2023-04-15T00:10:46.866Z,57.28
2023-04-15T00:14:15.845Z,52.83
2023-04-15T00:17:44.144Z,52.63
2023-04-15T00:21:09.853Z,52.03
2023-04-15T00:24:35.091Z,56.45
2023-04-15T00:28:02.716Z,60.72
2023-04-15T00:31:28.564Z,60.58
2023-04-15T00:34:54.004Z,58.80
2023-04-15T00:38:19.718Z,52.13
2023-04-15T00:41:45.895Z,53.33
2023-04-15T00:45:11.649Z,55.63
2023-04-15T00:48:39.133Z,53.92
2023-04-15T00:52:05.306Z,50.70
2023-04-15T00:55:30.590Z,55.47
2023-04-15T00:58:56.853Z,57.47
2023-04-15T01:02:24.165Z,59.30
2023-04-15T01:05:58.435Z,62.45
2023-04-15T01:09:30.151Z,61.17
2023-04-15T01:12:55.813Z,63.33
2023-04-15T01:16:21.561Z,69.25
2023-04-15T01:19:47.824Z,64.65
2023-04-15T01:23:13.453Z,63.85
2023-04-15T01:26:40.947Z,60.20
2023-04-15T01:30:10.886Z,58.50
2023-04-15T01:33:36.922Z,62.03
2023-04-15T01:37:02.558Z,59.67
2023-04-15T01:40:28.995Z,57.15
2023-04-15T01:43:57.728Z,64.53
2023-04-15T01:47:23.816Z,60.30
2023-04-15T01:50:49.349Z,61.83
2023-04-15T01:54:14.625Z,68.85
2023-04-15T01:57:40.244Z,58.85
2023-04-15T02:01:06.072Z,62.70
2023-04-15T02:04:32.095Z,66.88
2023-04-15T02:07:57.641Z,70.85
2023-04-15T02:11:25.582Z,61.03
2023-04-15T02:14:50.838Z,72.28
2023-04-15T02:18:16.580Z,58.03
2023-04-15T02:21:41.840Z,63.45
2023-04-15T02:25:10.011Z,62.65
2023-04-15T02:28:44.242Z,64.72
2023-04-15T02:32:09.613Z,69.80
2023-04-15T02:35:36.416Z,71.00
2023-04-15T02:39:02.038Z,67.20
2023-04-15T02:42:30.754Z,59.58
2023-04-15T02:45:56.443Z,63.47
2023-04-15T02:49:25.935Z,64.38
2023-04-15T02:52:51.730Z,67.05
2023-04-15T02:56:20.064Z,58.00
2023-04-15T02:59:45.443Z,63.25
2023-04-15T03:03:11.080Z,66.63
2023-04-15T03:06:36.544Z,53.92
2023-04-15T03:10:14.210Z,57.65
2023-04-15T03:13:41.933Z,61.97
2023-04-15T03:17:07.812Z,63.30
2023-04-15T03:20:33.081Z,54.95
2023-04-15T03:23:58.401Z,59.05
2023-04-15T03:27:30.284Z,56.55
2023-04-15T03:30:59.226Z,64.80
2023-04-15T03:34:27.065Z,58.22
2023-04-15T03:37:53.704Z,63.08
2023-04-15T03:41:20.184Z,61.10
2023-04-15T03:44:46.064Z,55.40
2023-04-15T03:48:17.905Z,57.17
2023-04-15T03:51:44.678Z,60.72
2023-04-15T03:55:10.147Z,59.78
2023-04-15T03:58:35.399Z,56.20
2023-04-15T04:02:01.554Z,55.75
2023-04-15T04:05:26.934Z,53.65
2023-04-15T04:08:56.912Z,52.60
2023-04-15T04:12:23.117Z,50.65
2023-04-15T04:15:48.525Z,61.25
2023-04-15T04:19:14.928Z,62.53
2023-04-15T04:22:40.892Z,58.00
2023-04-15T04:26:09.240Z,53.20
2023-04-15T04:29:37.618Z,51.75
2023-04-15T04:33:02.983Z,53.45
2023-04-15T04:36:28.698Z,55.22
2023-04-15T04:39:54.007Z,45.72
2023-04-15T04:43:19.358Z,55.08
2023-04-15T04:46:51.212Z,55.22
2023-04-15T04:50:16.929Z,48.55
2023-04-15T04:53:43.389Z,51.08
2023-04-15T04:57:08.702Z,48.95
2023-04-15T05:00:34.394Z,47.45
2023-04-15T05:04:00.165Z,44.55
2023-04-15T05:07:28.918Z,46.95
2023-04-15T05:10:54.683Z,45.95
2023-04-15T05:14:21.132Z,44.83
2023-04-15T05:17:47.580Z,45.92
2023-04-15T05:21:13.526Z,44.00
2023-04-15T05:24:38.962Z,42.75
2023-04-15T05:28:04.417Z,43.00
2023-04-15T05:31:29.777Z,45.45
2023-04-15T05:34:55.903Z,42.53
2023-04-15T05:38:23.863Z,44.80
2023-04-15T05:41:52.361Z,44.85
2023-04-15T05:45:20.443Z,43.03
2023-04-15T05:48:45.843Z,44.95
2023-04-15T05:52:14.157Z,43.65
2023-04-15T05:55:39.426Z,44.40
2023-04-15T05:59:04.713Z,40.83
2023-04-15T06:02:30.076Z,46.38
2023-04-15T06:05:55.765Z,43.80
2023-04-15T06:09:23.878Z,45.30
2023-04-15T06:12:55.517Z,43.20
2023-04-15T06:16:20.845Z,44.35
2023-04-15T06:19:47.944Z,44.15
2023-04-15T06:23:19.202Z,42.85
2023-04-15T06:30:10.009Z,40.30
2023-04-15T06:33:37.983Z,41.00
2023-04-15T06:37:05.118Z,42.30
2023-04-15T06:40:31.869Z,44.40
2023-04-15T06:43:59.583Z,41.45
2023-04-15T06:47:25.169Z,41.60
2023-04-15T06:50:50.711Z,40.83
2023-04-15T06:54:18.998Z,41.78
2023-04-15T06:57:45.048Z,40.42
2023-04-15T07:01:10.829Z,42.60
2023-04-15T07:04:43.517Z,41.97
2023-04-15T07:08:09.322Z,41.30
2023-04-15T07:11:34.631Z,39.95
2023-04-15T07:14:59.888Z,39.55
2023-04-15T07:18:26.035Z,41.45
2023-04-15T07:21:51.638Z,42.35
2023-04-15T07:25:17.852Z,50.72
2023-04-15T07:28:47.601Z,40.20
2023-04-15T07:32:12.897Z,42.75
2023-04-15T07:35:38.169Z,43.45
2023-04-15T07:39:04.429Z,43.22
2023-04-15T07:42:29.789Z,43.72
2023-04-15T07:45:55.705Z,43.78
2023-04-15T07:49:23.072Z,43.78
2023-04-15T07:52:52.628Z,41.92
2023-04-15T07:56:18.125Z,41.80
2023-04-15T07:59:43.802Z,35.33
2023-04-15T08:03:10.241Z,41.58
2023-04-15T08:06:35.563Z,44.33
2023-04-15T08:10:02.024Z,42.25
2023-04-15T08:13:27.858Z,43.80
2023-04-15T08:17:12.458Z,43.58
2023-04-15T08:20:38.001Z,42.60
2023-04-15T08:24:04.992Z,41.60
2023-04-15T08:27:37.384Z,43.80
2023-04-15T08:31:02.910Z,43.35
2023-04-15T08:34:31.479Z,50.95
2023-04-15T08:38:00.124Z,46.08
2023-04-15T08:41:34.922Z,51.00
2023-04-15T08:45:04.010Z,45.88
2023-04-15T08:48:33.449Z,44.58
2023-04-15T08:52:01.496Z,43.58
2023-04-15T08:55:30.026Z,44.63
2023-04-15T08:58:58.282Z,44.25
2023-04-15T09:02:24.798Z,47.67
2023-04-15T09:05:52.693Z,46.10
2023-04-15T09:09:18.684Z,45.55
2023-04-15T09:12:44.067Z,44.58
2023-04-15T09:16:13.894Z,43.22
2023-04-15T09:19:39.186Z,46.78
2023-04-15T09:23:15.354Z,46.85
2023-04-15T09:26:41.104Z,44.83
2023-04-15T09:30:08.836Z,45.28
2023-04-15T09:33:34.121Z,45.72
2023-04-15T09:37:00.951Z,46.00
2023-04-15T09:40:35.729Z,43.13
2023-04-15T09:44:02.215Z,44.65
2023-04-15T09:47:40.346Z,37.97
2023-04-15T09:51:06.365Z,36.95
2023-04-15T09:54:34.246Z,39.13
2023-04-15T09:58:08.898Z,44.50
2023-04-15T10:01:34.942Z,43.97
2023-04-15T10:05:03.410Z,45.58
2023-04-15T10:08:30.009Z,42.53
2023-04-15T10:11:56.248Z,42.72
2023-04-15T10:15:23.740Z,43.45
2023-04-15T10:18:55.551Z,44.30
2023-04-15T10:22:24.830Z,116.32
2023-04-15T10:25:55.052Z,55.35
2023-04-15T10:29:20.981Z,40.92
2023-04-15T10:32:47.597Z,45.13
2023-04-15T10:36:13.483Z,40.83
2023-04-15T10:39:41.259Z,41.63
2023-04-15T10:43:07.645Z,42.35
2023-04-15T10:46:37.539Z,42.03
2023-04-15T10:50:13.659Z,43.28
2023-04-15T10:53:42.819Z,42.05
2023-04-15T10:57:14.109Z,38.85
2023-04-15T11:00:57.548Z,44.08
2023-04-15T11:04:51.985Z,43.42
2023-04-15T11:09:03.514Z,42.67
2023-04-15T11:12:51.015Z,51.63
2023-04-15T11:16:27.418Z,44.40
2023-04-15T11:19:53.512Z,42.03
2023-04-15T11:23:20.073Z,35.67
2023-04-15T11:26:45.491Z,40.20
2023-04-15T11:30:20.641Z,38.78
2023-04-15T11:33:56.670Z,38.78
2023-04-15T11:37:29.501Z,41.08
2023-04-15T11:40:57.911Z,33.85
2023-04-15T11:44:29.275Z,40.83
2023-04-15T11:47:54.585Z,42.25
2023-04-15T11:51:22.805Z,33.45
2023-04-15T11:54:48.715Z,40.53
2023-04-15T11:58:29.618Z,40.05
2023-04-15T12:01:56.784Z,39.25
2023-04-15T12:05:22.805Z,40.42
2023-04-15T12:09:03.831Z,38.17
2023-04-15T12:12:34.264Z,39.85
2023-04-15T12:16:00.410Z,36.20
2023-04-15T12:19:29.543Z,37.67
2023-04-15T12:23:14.282Z,38.45
2023-04-15T12:26:49.806Z,37.17
2023-04-15T12:30:15.735Z,38.05
2023-04-15T12:33:41.096Z,42.40
2023-04-15T12:37:07.876Z,42.40
2023-04-15T12:40:36.689Z,31.10
2023-04-15T12:44:05.855Z,41.70
2023-04-15T12:47:31.586Z,39.75
2023-04-15T12:50:58.309Z,39.08
2023-04-15T12:54:23.585Z,40.78
2023-04-15T12:57:49.542Z,40.20
2023-04-15T13:01:15.048Z,39.60
2023-04-15T13:04:43.210Z,50.35
2023-04-15T13:08:08.550Z,50.45
2023-04-15T13:11:36.909Z,37.72
2023-04-15T13:15:06.522Z,41.63
2023-04-15T13:18:34.548Z,34.35
2023-04-15T13:22:03.078Z,41.50
2023-04-15T13:25:28.386Z,42.83
2023-04-15T13:28:53.663Z,40.70
2023-04-15T13:32:18.950Z,43.78
2023-04-15T13:35:44.447Z,41.58
2023-04-15T13:39:09.720Z,34.60
2023-04-15T13:42:35.008Z,45.00
2023-04-15T13:46:00.341Z,34.90
2023-04-15T13:49:31.246Z,41.08
2023-04-15T13:52:56.572Z,41.00
2023-04-15T13:56:22.010Z,42.20
2023-04-15T13:59:53.930Z,41.88
2023-04-15T14:03:21.715Z,39.80
2023-04-15T14:06:47.149Z,41.60
2023-04-15T14:10:15.449Z,42.67
2023-04-15T14:13:40.914Z,40.50
2023-04-15T14:17:12.049Z,42.28
2023-04-15T14:24:02.414Z,41.22
2023-04-15T14:27:30.595Z,42.78
2023-04-15T14:31:03.868Z,42.25
2023-04-15T14:34:29.188Z,41.22
2023-04-15T14:37:57.619Z,42.22
2023-04-15T14:41:23.525Z,41.20
2023-04-15T14:44:48.806Z,41.90
2023-04-15T14:48:14.110Z,36.70
2023-04-15T14:51:48.115Z,42.50
2023-04-15T14:55:13.794Z,40.33
2023-04-15T14:58:40.026Z,43.28
2023-04-15T15:02:05.454Z,41.88
2023-04-15T15:05:30.869Z,41.00
2023-04-15T15:08:56.218Z,40.58
2023-04-15T15:12:23.680Z,42.03
2023-04-15T15:15:51.611Z,34.72
2023-04-15T15:19:19.883Z,43.08
2023-04-15T15:22:49.424Z,42.17
2023-04-15T15:26:14.836Z,42.17
2023-04-15T15:29:40.746Z,38.20
2023-04-15T15:33:15.857Z,39.33
2023-04-15T15:36:41.703Z,39.53
2023-04-15T15:40:08.585Z,39.25
2023-04-15T15:43:34.540Z,41.55
2023-04-15T15:47:00.357Z,38.33
2023-04-15T15:50:25.915Z,39.15
2023-04-15T15:53:51.430Z,39.55
2023-04-15T15:57:16.668Z,38.53
2023-04-15T16:00:42.666Z,37.25
2023-04-15T16:04:08.951Z,46.05
2023-04-15T16:07:34.509Z,36.33
2023-04-15T16:11:00.233Z,38.30
2023-04-15T16:14:26.542Z,41.95
2023-04-15T16:17:54.493Z,38.38
2023-04-15T16:21:20.504Z,41.70
2023-04-15T16:24:46.060Z,36.55
2023-04-15T16:28:25.661Z,38.03
2023-04-15T16:31:52.627Z,39.40
2023-04-15T16:35:21.445Z,32.58
2023-04-15T16:38:48.663Z,36.83
2023-04-15T16:42:14.436Z,38.10
2023-04-15T16:45:39.740Z,41.20
2023-04-15T16:49:05.941Z,37.03
2023-04-15T16:52:34.227Z,38.42
2023-04-15T16:55:59.549Z,38.97
2023-04-15T16:59:26.027Z,39.92
2023-04-15T17:02:51.348Z,40.10
2023-04-15T17:06:19.775Z,32.75
2023-04-15T17:09:52.773Z,45.80
2023-04-15T17:13:19.602Z,39.50
2023-04-15T17:16:44.934Z,33.70
2023-04-15T17:20:10.861Z,35.13
2023-04-15T17:23:36.346Z,36.30
2023-04-15T17:27:03.615Z,40.28
2023-04-15T17:30:32.365Z,31.50
2023-04-15T17:34:05.965Z,34.08
2023-04-15T17:37:36.275Z,38.70
2023-04-15T17:41:01.615Z,37.78
2023-04-15T17:44:39.009Z,36.85
2023-04-15T17:48:04.442Z,33.95
2023-04-15T17:51:38.772Z,40.30
2023-04-15T17:55:04.392Z,38.25
2023-04-15T17:58:29.686Z,31.35
2023-04-15T18:01:55.204Z,37.30
2023-04-15T18:05:20.598Z,34.10
2023-04-15T18:08:45.995Z,39.20
2023-04-15T18:12:11.283Z,37.33
2023-04-15T18:15:36.585Z,39.30
2023-04-15T18:19:02.180Z,31.13
2023-04-15T18:22:27.890Z,36.97
2023-04-15T18:25:55.571Z,31.75
2023-04-15T18:29:20.853Z,40.17
2023-04-15T18:32:46.392Z,31.00
2023-04-15T18:36:11.765Z,41.10
2023-04-15T18:39:37.036Z,37.72
2023-04-15T18:43:02.389Z,31.88
2023-04-15T18:46:29.015Z,41.95
2023-04-15T18:49:54.416Z,42.50
2023-04-15T18:53:20.795Z,39.40
2023-04-15T18:56:46.116Z,43.92
2023-04-15T19:00:12.064Z,43.42
2023-04-15T19:03:40.103Z,40.60
2023-04-15T19:07:05.827Z,31.33
2023-04-15T19:10:31.433Z,32.38
2023-04-15T19:13:56.733Z,32.38
2023-04-15T19:17:23.040Z,41.10
2023-04-15T19:20:52.174Z,36.90
2023-04-15T19:24:19.006Z,40.60
2023-04-15T19:27:48.001Z,39.50
2023-04-15T19:31:13.410Z,40.92
2023-04-15T19:34:38.765Z,42.78
2023-04-15T19:38:10.274Z,41.80
2023-04-15T19:41:35.576Z,41.65
2023-04-15T19:45:00.894Z,43.30
2023-04-15T19:48:26.715Z,38.15
2023-04-15T19:51:54.611Z,41.67
2023-04-15T19:55:19.958Z,38.78
2023-04-15T19:58:50.246Z,40.30
2023-04-15T20:02:15.588Z,38.80
2023-04-15T20:05:44.055Z,38.75
2023-04-15T20:09:11.304Z,36.78
2023-04-15T20:12:50.411Z,36.30
2023-04-15T20:16:18.102Z,37.10
2023-04-15T20:19:43.364Z,38.20
2023-04-15T20:23:08.689Z,37.00
2023-04-15T20:26:40.803Z,37.00
2023-04-15T20:30:06.459Z,37.42
2023-04-15T20:33:34.440Z,40.13
2023-04-15T20:36:59.694Z,38.65
2023-04-15T20:40:25.058Z,35.03
2023-04-15T20:43:50.888Z,44.15
2023-04-15T20:47:19.481Z,39.35
2023-04-15T20:50:50.825Z,38.33
2023-04-15T20:54:16.426Z,38.70
2023-04-15T20:57:44.290Z,40.08
2023-04-15T21:01:10.119Z,30.45
2023-04-15T21:04:35.560Z,39.20
2023-04-15T21:08:01.026Z,30.92
2023-04-15T21:11:49.468Z,38.22
2023-04-15T21:15:11.858Z,38.60
2023-04-15T21:18:39.681Z,37.38
2023-04-15T21:22:08.052Z,39.10
2023-04-15T21:25:33.921Z,32.35
2023-04-15T21:29:00.405Z,38.80
2023-04-15T21:32:31.638Z,39.55
2023-04-15T21:35:56.920Z,38.92
2023-04-15T21:39:22.424Z,40.97
2023-04-15T21:42:49.174Z,41.30
2023-04-15T21:46:22.294Z,40.53
2023-04-15T21:49:52.792Z,41.38
2023-04-15T21:53:18.059Z,40.42
2023-04-15T21:56:43.409Z,40.45
2023-04-15T22:00:10.567Z,39.90
2023-04-15T22:03:39.365Z,38.85
2023-04-15T22:07:04.871Z,41.67
2023-04-15T22:10:30.348Z,41.65
2023-04-15T22:13:56.888Z,42.15
2023-04-15T22:17:23.897Z,41.38
2023-04-15T22:20:49.850Z,41.78
2023-04-15T22:24:35.248Z,33.60
2023-04-15T22:28:00.478Z,38.85
2023-04-15T22:31:28.487Z,36.80
2023-04-15T22:34:53.771Z,36.50
2023-04-15T22:38:18.997Z,40.80
2023-04-15T22:41:46.971Z,36.88
2023-04-15T22:45:12.433Z,35.38
2023-04-15T22:48:37.705Z,34.88
2023-04-15T22:52:03.128Z,34.63
2023-04-15T22:55:28.424Z,27.95
2023-04-15T22:58:53.677Z,36.25
2023-04-15T23:02:19.114Z,35.88
2023-04-15T23:05:45.791Z,36.28
2023-04-15T23:09:11.571Z,33.33
2023-04-15T23:12:37.117Z,36.92
2023-04-15T23:16:03.494Z,36.75
2023-04-15T23:19:29.428Z,36.30
2023-04-15T23:22:55.233Z,35.53
2023-04-15T23:26:20.578Z,35.67
2023-04-15T23:29:48.833Z,29.80
2023-04-15T23:33:14.144Z,36.47
2023-04-15T23:36:42.145Z,38.75
2023-04-15T23:40:10.603Z,47.88
2023-04-15T23:43:35.903Z,44.22
2023-04-15T23:47:04.044Z,34.03
2023-04-15T23:50:29.370Z,31.92
2023-04-15T23:53:54.652Z,31.67
2023-04-15T23:57:20.066Z,30.73
